createdAt,value
2018-09-11T00:01:01.467Z,10.43
2018-09-11T00:03:30.062Z,8.50
2018-09-11T00:05:59.328Z,10.47
2018-09-11T00:08:28.345Z,19.37
2018-09-11T00:10:56.686Z,9.40
2018-09-11T00:13:25.129Z,8.80
2018-09-11T00:15:53.985Z,11.73
2018-09-11T00:18:22.496Z,6.43
2018-09-11T00:20:50.914Z,12.67
2018-09-11T00:23:19.398Z,13.77
2018-09-11T00:25:47.842Z,11.37
2018-09-11T00:28:16.164Z,9.70
2018-09-11T00:30:44.595Z,11.00
2018-09-11T00:33:13.077Z,8.50
2018-09-11T00:35:41.530Z,8.67
2018-09-11T00:38:09.986Z,18.57
2018-09-11T00:40:38.510Z,8.17
2018-09-11T00:43:07.414Z,12.30
2018-09-11T00:45:36.014Z,11.83
2018-09-11T00:48:04.613Z,14.30
2018-09-11T00:50:33.485Z,9.27
2018-09-11T00:53:01.800Z,14.83
2018-09-11T00:55:30.797Z,12.60
2018-09-11T00:57:59.509Z,14.17
2018-09-11T01:00:27.827Z,13.33
2018-09-11T01:02:56.218Z,7.53
2018-09-11T01:05:24.626Z,9.73
2018-09-11T01:07:53.007Z,13.83
2018-09-11T01:10:21.856Z,11.67
2018-09-11T01:12:50.497Z,13.10
2018-09-11T01:15:19.547Z,11.77
2018-09-11T01:17:47.995Z,12.50
2018-09-11T01:20:16.491Z,16.13
2018-09-11T01:22:44.904Z,13.57
2018-09-11T01:25:13.434Z,8.70
2018-09-11T01:27:41.772Z,14.63
2018-09-11T01:30:10.082Z,12.37
2018-09-11T01:32:38.417Z,12.77
2018-09-11T01:35:06.845Z,14.43
2018-09-11T01:37:35.229Z,11.07
2018-09-11T01:40:03.713Z,11.43
2018-09-11T01:42:32.052Z,10.30
2018-09-11T01:45:00.469Z,12.40
2018-09-11T01:47:28.912Z,11.37
2018-09-11T01:49:58.220Z,16.23
2018-09-11T01:52:28.192Z,10.40
2018-09-11T01:54:56.652Z,9.03
2018-09-11T01:57:25.047Z,9.47
2018-09-11T01:59:53.497Z,12.07
2018-09-11T02:02:22.358Z,17.97
2018-09-11T02:04:51.237Z,10.43
2018-09-11T02:07:20.949Z,20.10
2018-09-11T02:12:16.412Z,13.13
2018-09-11T02:14:44.932Z,11.33
2018-09-11T02:17:13.329Z,12.57
2018-09-11T02:19:41.749Z,12.97
2018-09-11T02:22:10.233Z,13.53
2018-09-11T02:24:38.565Z,10.30
2018-09-11T02:27:07.887Z,14.57
2018-09-11T02:29:36.264Z,15.73
2018-09-11T02:32:04.822Z,12.03
2018-09-11T02:34:33.327Z,12.53
2018-09-11T02:37:01.614Z,13.90
2018-09-11T02:39:30.012Z,14.30
2018-09-11T02:41:58.372Z,16.27
2018-09-11T02:44:26.777Z,25.43
2018-09-11T02:46:55.215Z,19.03
2018-09-11T02:49:23.629Z,17.00
2018-09-11T02:51:52.023Z,18.10
2018-09-11T02:54:20.335Z,19.00
2018-09-11T02:56:49.347Z,16.80
2018-09-11T02:59:17.739Z,12.87
2018-09-11T03:01:46.178Z,14.27
2018-09-11T03:04:14.551Z,13.00
2018-09-11T03:06:43.035Z,12.77
2018-09-11T03:09:11.471Z,18.30
2018-09-11T03:11:39.803Z,11.77
2018-09-11T03:14:08.220Z,23.77
2018-09-11T03:16:36.561Z,18.43
2018-09-11T03:19:05.154Z,17.93
2018-09-11T03:21:33.493Z,13.87
2018-09-11T03:24:01.884Z,20.90
2018-09-11T03:26:30.253Z,11.37
2018-09-11T03:28:58.632Z,12.30
2018-09-11T03:31:27.126Z,15.20
2018-09-11T03:33:55.496Z,16.80
2018-09-11T03:36:24.103Z,19.93
2018-09-11T03:38:52.477Z,13.00
2018-09-11T03:41:20.849Z,16.13
2018-09-11T03:43:49.928Z,22.63
2018-09-11T03:46:18.807Z,18.00
2018-09-11T03:48:47.468Z,16.83
2018-09-11T03:51:17.820Z,18.10
2018-09-11T03:53:46.278Z,18.00
2018-09-11T03:56:14.622Z,12.23
2018-09-11T03:58:43.014Z,13.83
2018-09-11T04:01:11.595Z,10.77
2018-09-11T04:03:40.053Z,14.27
2018-09-11T04:06:08.497Z,12.10
2018-09-11T04:08:36.980Z,15.13
2018-09-11T04:11:05.354Z,10.87
2018-09-11T04:13:33.807Z,12.73
2018-09-11T04:16:02.238Z,13.93
2018-09-11T04:18:31.125Z,13.70
2018-09-11T04:20:59.496Z,15.10
2018-09-11T04:23:28.588Z,14.23
2018-09-11T04:25:57.055Z,17.30
2018-09-11T04:28:25.471Z,13.10
2018-09-11T04:30:53.952Z,16.63
2018-09-11T04:33:22.330Z,18.00
2018-09-11T04:35:50.704Z,13.63
2018-09-11T04:38:19.013Z,13.70
2018-09-11T04:40:47.348Z,10.60
2018-09-11T04:43:15.731Z,13.33
2018-09-11T04:45:44.118Z,15.87
2018-09-11T04:48:12.844Z,15.87
2018-09-11T04:50:41.162Z,16.23
2018-09-11T04:53:10.110Z,13.27
2018-09-11T04:55:39.549Z,14.57
2018-09-11T04:58:08.545Z,18.17
2018-09-11T05:00:36.978Z,16.27
2018-09-11T05:03:06.353Z,18.07
2018-09-11T05:05:34.757Z,14.63
2018-09-11T05:08:03.725Z,13.77
2018-09-11T05:10:32.214Z,12.30
2018-09-11T05:13:01.635Z,21.17
2018-09-11T05:15:30.008Z,15.63
2018-09-11T05:17:59.126Z,13.03
2018-09-11T05:20:27.501Z,17.43
2018-09-11T05:22:55.895Z,11.20
2018-09-11T05:25:24.431Z,13.43
2018-09-11T05:27:52.923Z,14.33
2018-09-11T05:30:21.263Z,15.83
2018-09-11T05:32:49.776Z,14.80
2018-09-11T05:35:18.350Z,12.10
2018-09-11T05:37:46.708Z,13.90
2018-09-11T05:40:15.891Z,12.03
2018-09-11T05:42:44.264Z,15.07
2018-09-11T05:45:12.708Z,14.10
2018-09-11T05:47:41.137Z,15.47
2018-09-11T05:50:10.907Z,15.70
2018-09-11T05:52:40.071Z,13.23
2018-09-11T05:55:09.149Z,15.83
2018-09-11T05:57:37.570Z,18.53
2018-09-11T06:00:06.916Z,15.57
2018-09-11T06:02:36.453Z,12.13
2018-09-11T06:05:05.397Z,16.33
2018-09-11T06:07:34.260Z,13.57
2018-09-11T06:10:02.850Z,10.73
2018-09-11T06:12:31.347Z,12.97
2018-09-11T06:14:59.823Z,10.87
2018-09-11T06:17:28.446Z,13.70
2018-09-11T06:19:57.444Z,18.63
2018-09-11T06:22:25.828Z,12.07
2018-09-11T06:24:54.210Z,8.60
2018-09-11T06:27:22.938Z,13.00
2018-09-11T06:29:51.229Z,13.37
2018-09-11T06:32:20.103Z,17.57
2018-09-11T06:34:48.884Z,15.90
2018-09-11T06:37:17.236Z,11.13
2018-09-11T06:39:45.896Z,14.70
2018-09-11T06:42:14.328Z,7.03
2018-09-11T06:44:42.751Z,11.00
2018-09-11T06:47:11.958Z,12.33
2018-09-11T06:49:40.359Z,11.70
2018-09-11T06:52:08.742Z,12.50
2018-09-11T06:54:37.242Z,12.27
2018-09-11T06:57:06.107Z,8.53
2018-09-11T06:59:35.036Z,7.80
2018-09-11T07:02:07.699Z,15.80
2018-09-11T07:04:36.198Z,17.87
2018-09-11T07:07:05.024Z,13.27
2018-09-11T07:09:34.014Z,9.43
2018-09-11T07:12:03.725Z,11.50
2018-09-11T07:14:32.115Z,13.00
2018-09-11T07:17:00.496Z,9.57
2018-09-11T07:19:29.528Z,6.97
2018-09-11T07:21:58.027Z,10.20
2018-09-11T07:24:26.725Z,12.53
2018-09-11T07:26:55.405Z,8.60
2018-09-11T07:29:24.319Z,10.37
2018-09-11T07:31:52.710Z,8.83
2018-09-11T07:34:21.068Z,13.70
2018-09-11T07:36:49.698Z,8.50
2018-09-11T07:39:18.119Z,9.47
2018-09-11T07:41:46.612Z,7.90
2018-09-11T07:44:15.065Z,14.87
2018-09-11T07:46:43.418Z,11.43
2018-09-11T07:49:11.837Z,10.53
2018-09-11T07:51:40.253Z,10.47
2018-09-11T07:54:09.404Z,10.17
2018-09-11T07:59:09.605Z,14.43
2018-09-11T08:01:38.096Z,7.03
2018-09-11T08:04:06.798Z,9.13
2018-09-11T08:06:35.296Z,10.67
2018-09-11T08:09:04.864Z,8.93
2018-09-11T08:11:33.847Z,9.13
2018-09-11T08:14:03.197Z,6.03
2018-09-11T08:16:32.314Z,8.33
2018-09-11T08:19:00.625Z,6.50
2018-09-11T08:21:29.070Z,5.60
2018-09-11T08:23:57.782Z,7.97
2018-09-11T08:26:26.284Z,7.20
2018-09-11T08:28:55.119Z,8.37
2018-09-11T08:31:23.544Z,14.07
2018-09-11T08:33:52.963Z,14.17
2018-09-11T08:36:21.453Z,8.13
2018-09-11T08:38:49.893Z,11.90
2018-09-11T08:41:18.481Z,9.53
2018-09-11T08:43:46.873Z,8.37
2018-09-11T08:46:15.257Z,6.97
2018-09-11T08:48:43.725Z,7.87
2018-09-11T08:51:12.343Z,15.47
2018-09-11T08:53:42.044Z,8.50
2018-09-11T08:56:10.754Z,7.80
2018-09-11T08:58:39.216Z,5.07
2018-09-11T09:01:08.206Z,7.77
2018-09-11T09:03:36.645Z,9.27
2018-09-11T09:06:05.522Z,10.00
2018-09-11T09:08:33.872Z,7.27
2018-09-11T09:11:02.483Z,6.90
2018-09-11T09:13:30.848Z,12.53
2018-09-11T09:15:59.188Z,8.13
2018-09-11T09:18:28.555Z,6.10
2018-09-11T09:20:57.037Z,10.97
2018-09-11T09:23:25.586Z,6.50
2018-09-11T09:25:53.996Z,8.53
2018-09-11T09:28:22.633Z,7.17
2018-09-11T09:30:51.073Z,8.73
2018-09-11T09:33:19.534Z,8.20
2018-09-11T09:35:48.650Z,6.67
2018-09-11T09:38:19.110Z,6.77
2018-09-11T09:40:48.476Z,8.80
2018-09-11T09:43:16.901Z,8.20
2018-09-11T09:45:45.239Z,9.43
2018-09-11T09:48:13.659Z,4.37
2018-09-11T09:50:42.559Z,8.37
2018-09-11T09:53:10.949Z,4.57
2018-09-11T09:55:39.244Z,7.17
2018-09-11T09:58:08.058Z,7.07
2018-09-11T10:00:41.596Z,9.50
2018-09-11T10:03:10.029Z,6.23
2018-09-11T10:05:38.762Z,7.57
2018-09-11T10:08:07.748Z,6.37
2018-09-11T10:10:36.299Z,11.80
2018-09-11T10:13:05.773Z,6.47
2018-09-11T10:15:34.257Z,8.03
2018-09-11T10:18:04.381Z,6.90
2018-09-11T10:20:32.912Z,7.63
2018-09-11T10:23:01.349Z,5.07
2018-09-11T10:25:30.700Z,9.30
2018-09-11T10:27:59.738Z,11.33
2018-09-11T10:30:28.164Z,10.13
2018-09-11T10:32:56.594Z,10.63
2018-09-11T10:35:25.945Z,10.13
2018-09-11T10:37:54.417Z,6.13
2018-09-11T10:40:22.876Z,6.03
2018-09-11T10:42:51.528Z,6.13
2018-09-11T10:45:19.880Z,7.50
2018-09-11T10:47:48.283Z,3.50
2018-09-11T10:50:17.072Z,6.20
2018-09-11T10:52:45.560Z,6.80
2018-09-11T10:55:14.606Z,10.97
2018-09-11T10:57:43.232Z,5.17
2018-09-11T11:00:11.673Z,11.37
2018-09-11T11:02:40.139Z,5.57
2018-09-11T11:05:08.641Z,9.57
2018-09-11T11:07:37.196Z,5.13
2018-09-11T11:10:09.067Z,11.73
2018-09-11T11:12:37.405Z,7.17
2018-09-11T11:17:35.128Z,6.10
2018-09-11T11:20:03.612Z,7.03
2018-09-11T11:22:32.163Z,14.67
2018-09-11T11:25:00.711Z,9.10
2018-09-11T11:27:29.101Z,10.90
2018-09-11T11:32:24.909Z,5.63
2018-09-11T11:34:53.262Z,21.00
2018-09-11T11:37:21.762Z,13.90
2018-09-11T11:39:50.650Z,6.40
2018-09-11T11:42:19.010Z,5.17
2018-09-11T11:44:47.342Z,15.50
2018-09-11T11:47:16.743Z,9.27
2018-09-11T11:49:45.108Z,8.60
2018-09-11T11:52:13.556Z,12.27
2018-09-11T11:54:42.115Z,12.67
2018-09-11T11:57:10.403Z,7.50
2018-09-11T11:59:38.798Z,8.87
2018-09-11T12:02:08.382Z,10.47
2018-09-11T12:04:36.786Z,12.07
2018-09-11T12:07:07.327Z,11.50
2018-09-11T12:09:35.694Z,8.90
2018-09-11T12:12:04.569Z,9.30
2018-09-11T12:14:33.029Z,7.03
2018-09-11T12:17:01.448Z,6.97
2018-09-11T12:19:29.952Z,12.67
2018-09-11T12:21:58.377Z,7.70
2018-09-11T12:24:26.723Z,10.13
2018-09-11T12:26:55.060Z,9.27
2018-09-11T12:29:23.374Z,7.43
2018-09-11T12:31:51.737Z,10.47
2018-09-11T12:34:20.131Z,7.97
2018-09-11T12:36:50.497Z,7.80
2018-09-11T12:39:18.937Z,5.07
2018-09-11T12:41:48.636Z,6.30
2018-09-11T12:44:16.989Z,7.17
2018-09-11T12:46:46.155Z,6.13
2018-09-11T12:49:14.459Z,7.20
2018-09-11T12:51:43.668Z,8.93
2018-09-11T12:54:12.034Z,4.90
2018-09-11T12:56:40.793Z,5.33
2018-09-11T12:59:09.283Z,12.33
2018-09-11T13:01:37.984Z,5.33
2018-09-11T13:04:08.387Z,9.40
2018-09-11T13:06:36.804Z,9.50
2018-09-11T13:09:07.559Z,10.07
2018-09-11T13:11:36.001Z,5.07
2018-09-11T13:14:05.217Z,7.83
2018-09-11T13:19:04.447Z,4.93
2018-09-11T13:21:32.926Z,4.20
2018-09-11T13:24:01.830Z,4.33
2018-09-11T13:26:30.235Z,4.37
2018-09-11T13:28:58.642Z,4.53
2018-09-11T13:31:27.125Z,5.37
2018-09-11T13:33:55.759Z,8.13
2018-09-11T13:36:24.214Z,6.83
2018-09-11T13:38:52.750Z,6.27
2018-09-11T13:41:21.159Z,5.57
2018-09-11T13:43:49.914Z,7.30
2018-09-11T13:46:18.595Z,5.43
2018-09-11T13:48:47.201Z,4.27
2018-09-11T13:51:15.635Z,9.13
2018-09-11T13:53:44.025Z,4.87
2018-09-11T13:56:12.421Z,4.43
2018-09-11T13:58:41.039Z,5.80
2018-09-11T14:01:09.561Z,8.93
2018-09-11T14:03:38.695Z,5.23
2018-09-11T14:06:07.586Z,8.43
2018-09-11T14:08:35.961Z,8.70
2018-09-11T14:11:04.632Z,6.40
2018-09-11T14:13:34.071Z,9.47
2018-09-11T14:16:02.405Z,3.90
2018-09-11T14:18:30.860Z,7.30
2018-09-11T14:20:59.821Z,6.53
2018-09-11T14:23:28.604Z,5.77
2018-09-11T14:25:56.917Z,3.67
2018-09-11T14:28:26.084Z,10.37
2018-09-11T14:30:54.538Z,7.23
2018-09-11T14:33:22.915Z,7.80
2018-09-11T14:35:52.105Z,9.33
2018-09-11T14:38:20.484Z,4.90
2018-09-11T14:40:49.132Z,3.77
2018-09-11T14:43:17.656Z,5.07
2018-09-11T14:45:46.180Z,7.60
2018-09-11T14:48:14.789Z,7.87
2018-09-11T14:50:43.281Z,7.47
2018-09-11T14:53:11.683Z,8.63
2018-09-11T14:55:40.205Z,5.67
2018-09-11T14:58:08.733Z,8.43
2018-09-11T15:00:38.118Z,9.93
2018-09-11T15:03:07.013Z,6.90
2018-09-11T15:05:35.617Z,7.80
2018-09-11T15:08:04.381Z,8.83
2018-09-11T15:10:32.996Z,12.23
2018-09-11T15:13:01.600Z,6.40
2018-09-11T15:15:30.093Z,6.87
2018-09-11T15:17:59.437Z,8.90
2018-09-11T15:20:27.841Z,5.83
2018-09-11T15:22:56.283Z,7.50
2018-09-11T15:25:25.800Z,8.33
2018-09-11T15:27:54.414Z,12.63
2018-09-11T15:30:22.840Z,5.70
2018-09-11T15:32:51.237Z,7.40
2018-09-11T15:35:19.721Z,7.87
2018-09-11T15:37:48.873Z,5.43
2018-09-11T15:40:17.840Z,4.70
2018-09-11T15:42:46.436Z,8.03
2018-09-11T15:45:14.825Z,7.73
2018-09-11T15:47:43.406Z,8.20
2018-09-11T15:50:11.830Z,6.90
2018-09-11T15:52:40.372Z,8.33
2018-09-11T15:55:08.785Z,6.33
2018-09-11T15:57:37.268Z,7.17
2018-09-11T16:00:06.319Z,7.30
2018-09-11T16:02:34.748Z,8.53
2018-09-11T16:05:03.349Z,11.27
2018-09-11T16:07:31.831Z,6.90
2018-09-11T16:10:00.361Z,7.57
2018-09-11T16:12:28.853Z,10.23
2018-09-11T16:14:57.317Z,9.00
2018-09-11T16:17:26.910Z,8.27
2018-09-11T16:19:55.439Z,6.43
2018-09-11T16:22:23.895Z,9.93
2018-09-11T16:24:52.261Z,7.80
2018-09-11T16:27:21.575Z,9.97
2018-09-11T16:29:50.133Z,8.60
2018-09-11T16:32:19.258Z,9.40
2018-09-11T16:34:47.653Z,13.23
2018-09-11T16:37:16.108Z,6.73
2018-09-11T16:39:44.557Z,10.57
2018-09-11T16:42:12.987Z,7.43
2018-09-11T16:44:41.415Z,7.03
2018-09-11T16:47:09.889Z,8.00
2018-09-11T16:49:38.390Z,10.53
2018-09-11T16:52:06.815Z,7.27
2018-09-11T16:54:35.226Z,7.33
2018-09-11T16:57:04.612Z,9.07
2018-09-11T16:59:32.911Z,11.83
2018-09-11T17:02:01.835Z,7.10
2018-09-11T17:04:30.280Z,14.03
2018-09-11T17:06:58.656Z,8.03
2018-09-11T17:09:27.118Z,8.47
2018-09-11T17:11:57.330Z,8.53
2018-09-11T17:14:25.908Z,10.87
2018-09-11T17:16:54.351Z,8.87
2018-09-11T17:19:23.564Z,8.60
2018-09-11T17:21:51.971Z,9.63
2018-09-11T17:24:20.443Z,8.60
2018-09-11T17:26:48.811Z,8.03
2018-09-11T17:29:17.161Z,11.87
2018-09-11T17:31:45.679Z,11.63
2018-09-11T17:34:14.078Z,11.73
2018-09-11T17:36:42.478Z,13.27
2018-09-11T17:39:12.114Z,13.67
2018-09-11T17:41:41.274Z,25.43
2018-09-11T17:46:37.132Z,22.10
2018-09-11T17:49:05.823Z,17.70
2018-09-11T17:51:34.247Z,21.70
2018-09-11T17:54:03.465Z,17.70
2018-09-11T17:56:32.004Z,22.10
2018-09-11T17:59:03.435Z,16.67
2018-09-11T18:01:32.566Z,25.10
2018-09-11T18:04:01.965Z,21.37
2018-09-11T18:06:30.452Z,24.43
2018-09-11T18:08:59.080Z,20.93
2018-09-11T18:11:27.620Z,20.27
2018-09-11T18:13:56.009Z,18.67
2018-09-11T18:16:24.361Z,17.43
2018-09-11T18:18:53.305Z,18.07
2018-09-11T18:21:21.747Z,20.33
2018-09-11T18:23:50.250Z,17.07
2018-09-11T18:26:18.737Z,17.97
2018-09-11T18:28:47.113Z,18.80
2018-09-11T18:31:15.580Z,23.07
2018-09-11T18:33:44.086Z,24.27
2018-09-11T18:36:12.659Z,19.47
2018-09-11T18:38:41.006Z,18.33
2018-09-11T18:41:09.351Z,21.37
2018-09-11T18:43:37.680Z,21.10
2018-09-11T18:46:06.180Z,24.13
2018-09-11T18:48:35.110Z,24.27
2018-09-11T18:51:03.662Z,24.43
2018-09-11T18:53:32.103Z,21.10
2018-09-11T18:56:00.687Z,20.20
2018-09-11T18:58:30.469Z,20.57
2018-09-11T19:00:59.045Z,16.37
2018-09-11T19:03:27.394Z,19.33
2018-09-11T19:05:55.846Z,18.60
2018-09-11T19:08:24.840Z,14.67
2018-09-11T19:10:53.762Z,19.10
2018-09-11T19:13:22.070Z,18.93
2018-09-11T19:18:17.782Z,16.77
2018-09-11T19:20:46.423Z,19.87
2018-09-11T19:23:14.852Z,18.50
2018-09-11T19:25:43.328Z,18.00
2018-09-11T19:28:11.718Z,22.73
2018-09-11T19:33:07.370Z,18.17
2018-09-11T19:35:36.797Z,20.17
2018-09-11T19:38:07.310Z,17.77
2018-09-11T19:40:35.901Z,13.87
2018-09-11T19:43:04.311Z,19.53
2018-09-11T19:45:33.937Z,18.77
2018-09-11T19:48:02.422Z,18.47
2018-09-11T19:50:32.143Z,17.33
2018-09-11T19:53:00.679Z,21.73
2018-09-11T19:55:29.188Z,19.37
2018-09-11T19:58:02.213Z,16.00
2018-09-11T20:00:32.602Z,15.10
2018-09-11T20:03:01.213Z,12.70
2018-09-11T20:05:29.569Z,14.93
2018-09-11T20:07:58.122Z,14.63
2018-09-11T20:10:26.557Z,15.67
2018-09-11T20:12:55.278Z,14.00
2018-09-11T20:15:26.905Z,15.20
2018-09-11T20:17:55.518Z,11.63
2018-09-11T20:20:23.924Z,15.90
2018-09-11T20:22:52.520Z,12.90
2018-09-11T20:25:21.247Z,12.90
2018-09-11T20:27:50.253Z,14.33
2018-09-11T20:30:19.590Z,15.60
2018-09-11T20:32:48.026Z,11.27
2018-09-11T20:35:16.494Z,15.67
2018-09-11T20:37:45.406Z,12.87
2018-09-11T20:40:13.845Z,11.33
2018-09-11T20:42:42.399Z,10.10
2018-09-11T20:45:10.851Z,11.47
2018-09-11T20:47:39.219Z,11.03
2018-09-11T20:50:08.170Z,11.07
2018-09-11T20:52:36.685Z,12.03
2018-09-11T20:55:05.464Z,16.30
2018-09-11T20:57:34.064Z,8.47
2018-09-11T21:00:02.467Z,8.50
2018-09-11T21:02:30.957Z,13.80
2018-09-11T21:04:59.338Z,14.30
2018-09-11T21:07:27.920Z,10.67
2018-09-11T21:09:56.321Z,11.57
2018-09-11T21:12:25.303Z,11.43
2018-09-11T21:14:54.512Z,10.43
2018-09-11T21:17:23.005Z,9.90
2018-09-11T21:19:51.393Z,11.23
2018-09-11T21:22:19.811Z,12.80
2018-09-11T21:24:48.240Z,12.60
2018-09-11T21:27:16.616Z,8.60
2018-09-11T21:29:44.972Z,8.20
2018-09-11T21:32:14.340Z,7.77
2018-09-11T21:34:42.877Z,9.87
2018-09-11T21:37:12.289Z,7.90
2018-09-11T21:39:40.655Z,9.13
2018-09-11T21:42:09.231Z,11.23
2018-09-11T21:44:39.313Z,12.50
2018-09-11T21:47:07.749Z,10.43
2018-09-11T21:49:36.298Z,9.83
2018-09-11T21:52:04.746Z,9.57
2018-09-11T21:54:33.417Z,9.10
2018-09-11T21:57:01.818Z,8.07
2018-09-11T21:59:30.286Z,13.03
2018-09-11T22:02:02.496Z,10.93
2018-09-11T22:04:31.269Z,10.10
2018-09-11T22:06:59.752Z,8.30
2018-09-11T22:09:28.197Z,10.17
2018-09-11T22:11:56.788Z,11.20
2018-09-11T22:14:25.059Z,12.23
2018-09-11T22:16:53.651Z,11.07
2018-09-11T22:19:22.234Z,10.13
2018-09-11T22:21:52.144Z,7.97
2018-09-11T22:24:20.766Z,14.23
2018-09-11T22:26:49.143Z,15.03
2018-09-11T22:29:17.553Z,10.10
2018-09-11T22:31:46.483Z,8.13
2018-09-11T22:34:14.824Z,15.77
2018-09-11T22:36:43.354Z,14.73
2018-09-11T22:39:12.145Z,12.67
2018-09-11T22:41:40.590Z,13.90
2018-09-11T22:44:09.991Z,12.77
2018-09-11T22:46:38.619Z,9.90
2018-09-11T22:49:07.095Z,10.80
2018-09-11T22:51:35.505Z,13.17
2018-09-11T22:54:04.800Z,12.77
2018-09-11T22:56:33.187Z,14.13
2018-09-11T22:59:02.054Z,11.30
2018-09-11T23:01:30.504Z,12.53
2018-09-11T23:03:59.067Z,14.47
2018-09-11T23:06:27.402Z,13.33
2018-09-11T23:08:56.381Z,12.00
2018-09-11T23:11:25.830Z,9.60
2018-09-11T23:13:54.249Z,12.10
2018-09-11T23:16:23.245Z,10.40
2018-09-11T23:18:51.828Z,10.20
2018-09-11T23:21:20.615Z,15.37
2018-09-11T23:23:49.006Z,14.53
2018-09-11T23:26:18.194Z,17.57
2018-09-11T23:28:47.250Z,21.83
2018-09-11T23:31:15.665Z,22.47
2018-09-11T23:33:44.077Z,22.00
2018-09-11T23:36:12.507Z,24.13
2018-09-11T23:38:40.813Z,28.73
2018-09-11T23:41:09.371Z,24.77
2018-09-11T23:43:37.874Z,23.97
2018-09-11T23:46:06.378Z,24.23
2018-09-11T23:48:34.741Z,23.67
2018-09-11T23:51:03.201Z,26.97
2018-09-11T23:53:31.503Z,27.13
2018-09-11T23:56:00.049Z,27.37
2018-09-11T23:58:29.348Z,27.53
